Terminal Aerodrome Forecast
Issued by NWS

Home | Current Version | Previous Version | Text Only | Print | Product List | Glossary On
Versions: 1 2 3 4 5 6 7 8 9 10 11 12 13 14 15 16
000
FTUS42 KMLB 232200 AAA
TAFSUA
TAF AMD
KSUA 232211Z 2322/2418 19006KT P6SM VCSH SCT025 BKN045
     FM240200 16003KT P6SM SCT040 BKN140
      TEMPO 2409/2412 5SM BR FEW005=

USA.gov is the U.S. government's official web portal to all federal, state and local government web resources and services.